createdAt,value
2018-09-20T05:57:45.052Z,24.00
2018-09-20T06:00:14.964Z,23.90
2018-09-20T06:02:44.848Z,22.60
2018-09-20T06:05:14.372Z,21.90
2018-09-20T06:07:43.639Z,21.40
2018-09-20T06:10:13.297Z,21.40
2018-09-20T06:12:42.533Z,21.20
2018-09-20T06:15:12.131Z,21.20
2018-09-20T06:17:41.543Z,21.30
2018-09-20T06:20:10.858Z,21.50
2018-09-20T06:22:40.882Z,22.30
2018-09-20T06:25:11.614Z,22.70
2018-09-20T06:27:41.684Z,22.90
2018-09-20T06:30:11.829Z,23.10
2018-09-20T06:32:42.221Z,23.20
2018-09-20T06:35:11.976Z,23.30
2018-09-20T06:37:41.601Z,23.40
2018-09-20T06:40:12.043Z,23.40
2018-09-20T06:42:41.670Z,23.30
2018-09-20T07:18:45.183Z,22.60
2018-09-20T07:21:15.909Z,22.70
2018-09-20T07:23:45.883Z,22.70
2018-09-20T07:26:15.881Z,22.80
2018-09-20T07:28:46.408Z,23.00
2018-09-20T07:31:16.002Z,23.00
2018-09-20T07:33:46.039Z,23.00
2018-09-20T07:36:16.160Z,23.20
2018-09-20T07:38:46.695Z,23.20
2018-09-20T07:41:42.824Z,23.20
2018-09-20T07:44:13.355Z,23.30
2018-09-20T07:46:43.379Z,23.20
2018-09-20T07:49:14.062Z,23.20
2018-09-20T07:51:44.020Z,23.20
2018-09-20T07:54:14.812Z,23.30
2018-09-20T07:56:45.319Z,23.70
2018-09-20T07:59:15.232Z,23.80
2018-09-20T08:01:46.073Z,23.80
2018-09-20T08:04:16.038Z,23.50
2018-09-20T08:06:46.422Z,23.30
2018-09-20T08:09:16.420Z,23.20
2018-09-20T08:11:46.373Z,23.30
2018-09-20T08:14:16.494Z,23.50
2018-09-20T08:16:46.794Z,23.50
2018-09-20T08:19:16.595Z,23.70
2018-09-20T08:21:46.429Z,23.70
2018-09-20T08:24:16.419Z,23.80
2018-09-20T08:26:46.805Z,24.00
2018-09-20T08:29:17.093Z,23.80
2018-09-20T08:31:47.029Z,23.90
2018-09-20T08:34:16.925Z,23.90
2018-09-20T08:36:46.885Z,23.80
2018-09-20T08:39:16.795Z,23.80
2018-09-20T08:41:46.581Z,23.80
2018-09-20T08:44:16.552Z,23.90
2018-09-20T08:46:46.703Z,24.00
2018-09-20T08:49:16.929Z,24.10
2018-09-20T08:51:46.688Z,24.00
2018-09-20T08:54:16.636Z,23.90
2018-09-20T08:56:46.907Z,24.00
2018-09-20T08:59:16.942Z,24.10
2018-09-20T09:01:47.058Z,24.10
2018-09-20T09:04:58.053Z,24.10
2018-09-20T09:07:28.120Z,24.10
2018-09-20T09:09:57.980Z,24.10
2018-09-20T09:12:27.526Z,24.20
2018-09-20T09:14:57.137Z,24.20
2018-09-20T09:17:26.589Z,24.20
2018-09-20T09:19:56.351Z,24.20
2018-09-20T09:22:25.807Z,24.20
2018-09-20T09:24:55.697Z,24.30
2018-09-20T09:27:25.386Z,24.30
2018-09-20T09:29:54.816Z,24.40
2018-09-20T09:32:24.559Z,24.30
2018-09-20T09:34:54.590Z,24.30
2018-09-20T09:37:24.029Z,24.20
2018-09-20T09:39:53.669Z,24.30
2018-09-20T09:42:23.017Z,24.30
2018-09-20T09:44:53.301Z,24.40
2018-09-20T09:47:22.647Z,24.30
2018-09-20T09:49:52.157Z,24.30
2018-09-20T09:52:22.009Z,24.30
2018-09-20T09:54:51.929Z,24.30
2018-09-20T09:57:21.405Z,24.30
2018-09-20T09:59:51.119Z,24.30
2018-09-20T10:02:21.124Z,24.40
2018-09-20T10:04:50.872Z,24.30
2018-09-20T10:07:20.967Z,24.30
2018-09-20T10:09:51.011Z,24.30
2018-09-20T10:12:20.851Z,24.30
2018-09-20T10:14:51.085Z,24.30
2018-09-20T10:17:21.161Z,24.40
2018-09-20T10:19:51.303Z,24.40
2018-09-20T10:22:21.323Z,24.30
2018-09-20T10:24:51.129Z,24.30
2018-09-20T10:27:20.619Z,24.40
2018-09-20T10:29:50.469Z,24.40
2018-09-20T10:32:20.169Z,24.40
2018-09-20T10:34:49.843Z,24.50
2018-09-20T10:37:19.470Z,24.50
2018-09-20T10:39:49.018Z,24.50
2018-09-20T10:42:18.833Z,24.50
2018-09-20T10:44:48.658Z,24.40
2018-09-20T10:47:18.415Z,24.40
2018-09-20T10:49:48.086Z,24.50
2018-09-20T10:52:17.349Z,24.50
2018-09-20T10:54:47.046Z,24.60
2018-09-20T10:57:17.025Z,24.60
2018-09-20T10:59:47.146Z,24.60
2018-09-20T11:02:17.836Z,24.60
2018-09-20T11:04:47.304Z,24.60
2018-09-20T11:07:17.403Z,24.60
2018-09-20T11:09:47.148Z,24.70
2018-09-20T11:12:16.988Z,24.70
2018-09-20T11:14:46.597Z,24.80
2018-09-20T11:17:16.300Z,24.80
2018-09-20T11:19:45.659Z,24.80
2018-09-20T11:22:15.429Z,24.90
2018-09-20T11:24:45.156Z,24.80
2018-09-20T11:27:20.962Z,25.00
2018-09-20T11:29:50.782Z,25.10
2018-09-20T11:32:20.237Z,25.10
2018-09-20T11:34:50.139Z,25.10
2018-09-20T11:37:19.756Z,25.20
2018-09-20T11:39:49.654Z,25.20
2018-09-20T11:42:19.409Z,25.10
2018-09-20T11:44:48.707Z,25.10
2018-09-20T11:47:18.381Z,25.10
2018-09-20T11:49:47.792Z,25.10
2018-09-20T11:52:17.981Z,25.00
2018-09-20T11:54:47.863Z,25.10
2018-09-20T11:57:17.561Z,25.10
2018-09-20T11:59:47.843Z,25.00
2018-09-20T12:02:17.650Z,24.90
2018-09-20T12:04:47.221Z,24.90
2018-09-20T12:07:16.727Z,24.90
2018-09-20T12:09:46.469Z,24.90
2018-09-20T12:12:16.452Z,24.90
2018-09-20T12:14:46.055Z,24.90
2018-09-20T12:17:16.118Z,25.10
2018-09-20T12:19:46.554Z,25.10
2018-09-20T12:22:16.401Z,25.20
2018-09-20T12:24:46.013Z,25.20
2018-09-20T12:27:15.944Z,25.20
2018-09-20T12:29:45.499Z,25.20
2018-09-20T12:32:15.063Z,25.20
2018-09-20T12:34:45.066Z,25.20
2018-09-20T12:37:15.238Z,25.20
2018-09-20T12:39:44.973Z,25.40
2018-09-20T12:42:14.551Z,25.50
2018-09-20T12:44:45.050Z,25.60
2018-09-20T12:47:14.446Z,25.50
2018-09-20T12:49:44.215Z,25.50
2018-09-20T12:52:14.140Z,25.40
2018-09-20T12:54:43.783Z,25.50
2018-09-20T12:57:13.665Z,25.50
2018-09-20T12:59:43.470Z,25.50
2018-09-20T13:02:13.183Z,25.50
2018-09-20T13:04:43.721Z,25.50
2018-09-20T13:07:13.501Z,25.50
2018-09-20T13:09:43.068Z,25.50
2018-09-20T13:12:13.086Z,25.50
2018-09-20T13:14:42.771Z,25.50
2018-09-20T13:17:12.257Z,25.50
2018-09-20T13:19:42.079Z,25.60
2018-09-20T13:22:11.977Z,25.70
2018-09-20T13:24:41.862Z,25.60
2018-09-20T13:27:11.839Z,25.60
2018-09-20T13:29:42.167Z,25.50
2018-09-20T13:32:11.867Z,25.60
2018-09-20T13:34:42.763Z,25.60
2018-09-20T13:37:12.713Z,25.60
2018-09-20T13:39:42.293Z,25.60
2018-09-20T13:42:12.111Z,25.50
2018-09-20T13:44:42.383Z,25.60
2018-09-20T13:47:11.845Z,25.60
2018-09-20T13:49:41.385Z,25.70
2018-09-20T13:52:11.062Z,25.70
2018-09-20T13:54:40.753Z,25.60
2018-09-20T13:57:10.604Z,25.50
2018-09-20T13:59:40.635Z,25.60
2018-09-20T14:02:11.923Z,25.60
2018-09-20T14:04:41.374Z,25.60
2018-09-20T14:07:11.130Z,25.60
2018-09-20T14:09:40.568Z,25.60
2018-09-20T14:12:09.881Z,25.70
2018-09-20T14:14:39.723Z,25.70
2018-09-20T14:17:09.538Z,25.80
2018-09-20T14:19:38.752Z,25.90
2018-09-20T14:22:08.575Z,25.90
2018-09-20T14:24:38.226Z,25.80
2018-09-20T14:27:08.069Z,25.90
2018-09-20T14:29:37.947Z,26.00
2018-09-20T14:32:07.230Z,25.90
2018-09-20T14:34:36.781Z,25.70
2018-09-20T14:37:07.589Z,25.70
2018-09-20T14:39:37.359Z,25.60
2018-09-20T14:42:06.915Z,25.60
2018-09-20T14:44:37.127Z,25.60
2018-09-20T14:47:06.633Z,25.70
2018-09-20T14:49:36.098Z,25.70
2018-09-20T14:52:05.838Z,25.80
2018-09-20T14:54:35.895Z,25.80
2018-09-20T14:57:05.734Z,25.90
2018-09-20T14:59:35.541Z,25.90
2018-09-20T15:02:05.305Z,25.80
